Time;durP1;ratioP1;P1;durP2;ratioP2;P2;SDS_P1;SDS_P2;PMS_P1;PMS_P2;Temp;Humidity;BMP_temperature;BMP_pressure;BME280_temperature;BME280_humidity;BME280_pressure;Samples;Min_cycle;Max_cycle;Signal;HPM_P1;HPM_P2
2020/08/21 00:00:07;;;;;;;1.87;1.47;;;;;;;23.34;71.86;99753.69;;;;-58
2020/08/21 00:03:07;;;;;;;1.71;1.47;;;;;;;23.34;71.84;99756.80;;;;-51
2020/08/21 00:06:07;;;;;;;1.52;1.42;;;;;;;23.33;71.84;99757.30;;;;-51
2020/08/21 00:09:06;;;;;;;2.59;1.48;;;;;;;23.33;71.84;99755.50;;;;-51
2020/08/21 00:12:06;;;;;;;1.61;1.51;;;;;;;23.32;71.84;99755.34;;;;-52
2020/08/21 00:15:06;;;;;;;2.25;1.49;;;;;;;23.32;71.84;99751.60;;;;-52
2020/08/21 00:18:06;;;;;;;1.70;1.50;;;;;;;23.31;71.82;99747.28;;;;-51
2020/08/21 00:21:06;;;;;;;1.63;1.39;;;;;;;23.31;71.84;99751.70;;;;-58
2020/08/21 00:24:06;;;;;;;1.68;1.31;;;;;;;23.31;71.82;99749.57;;;;-57
2020/08/21 00:27:06;;;;;;;1.55;1.39;;;;;;;23.31;71.84;99753.27;;;;-58
2020/08/21 00:30:07;;;;;;;1.67;1.57;;;;;;;23.30;71.83;99751.80;;;;-51
2020/08/21 00:33:07;;;;;;;1.80;1.52;;;;;;;23.29;71.84;99748.54;;;;-51
2020/08/21 00:36:07;;;;;;;2.09;1.51;;;;;;;23.29;71.86;99746.92;;;;-54
2020/08/21 00:39:07;;;;;;;1.83;1.41;;;;;;;23.29;71.83;99748.81;;;;-51
2020/08/21 00:42:06;;;;;;;1.49;1.37;;;;;;;23.28;71.83;99751.18;;;;-58
2020/08/21 00:45:06;;;;;;;2.31;1.50;;;;;;;23.28;71.85;99756.58;;;;-58
2020/08/21 00:48:06;;;;;;;1.91;1.45;;;;;;;23.27;71.84;99758.64;;;;-59
2020/08/21 00:51:06;;;;;;;1.89;1.21;;;;;;;23.27;71.83;99756.84;;;;-58
2020/08/21 00:54:07;;;;;;;1.83;1.47;;;;;;;23.26;71.87;99753.53;;;;-52
2020/08/21 00:57:07;;;;;;;1.55;1.40;;;;;;;23.27;71.82;99757.20;;;;-59
2020/08/21 01:00:07;;;;;;;1.50;1.40;;;;;;;23.26;71.83;99756.55;;;;-58
2020/08/21 01:03:07;;;;;;;1.52;1.42;;;;;;;23.25;71.84;99754.52;;;;-58
2020/08/21 01:06:07;;;;;;;1.66;1.50;;;;;;;23.25;71.79;99748.48;;;;-58
2020/08/21 01:09:07;;;;;;;2.11;1.39;;;;;;;23.25;71.83;99751.19;;;;-57
2020/08/21 01:12:07;;;;;;;1.56;1.24;;;;;;;23.24;71.82;99751.84;;;;-57
2020/08/21 01:15:06;;;;;;;1.55;1.35;;;;;;;23.24;71.86;99748.39;;;;-58
2020/08/21 01:18:06;;;;;;;1.81;1.33;;;;;;;23.24;71.83;99747.17;;;;-51
2020/08/21 01:21:06;;;;;;;1.50;1.40;;;;;;;23.23;71.83;99746.70;;;;-53
2020/08/21 01:24:06;;;;;;;1.40;1.30;;;;;;;23.23;71.80;99741.33;;;;-53
2020/08/21 01:27:06;;;;;;;1.57;1.38;;;;;;;23.23;71.82;99738.22;;;;-53
2020/08/21 01:30:06;;;;;;;1.53;1.41;;;;;;;23.23;71.81;99735.53;;;;-53
2020/08/21 01:33:06;;;;;;;1.45;1.35;;;;;;;23.22;71.77;99735.46;;;;-52
2020/08/21 01:36:06;;;;;;;1.58;1.48;;;;;;;23.22;71.80;99732.09;;;;-51
2020/08/21 01:39:07;;;;;;;1.41;1.31;;;;;;;23.22;71.80;99735.95;;;;-51
2020/08/21 01:42:07;;;;;;;1.41;1.31;;;;;;;23.22;71.79;99735.28;;;;-51
2020/08/21 01:45:06;;;;;;;1.64;1.49;;;;;;;23.21;71.82;99734.81;;;;-59
2020/08/21 01:48:06;;;;;;;1.50;1.40;;;;;;;23.21;71.80;99735.39;;;;-51
2020/08/21 01:51:06;;;;;;;2.17;1.46;;;;;;;23.22;71.79;99738.97;;;;-54
2020/08/21 01:54:06;;;;;;;1.63;1.46;;;;;;;23.21;71.80;99743.33;;;;-59
2020/08/21 01:57:06;;;;;;;1.43;1.33;;;;;;;23.20;71.77;99745.39;;;;-58
2020/08/21 02:00:06;;;;;;;1.78;1.45;;;;;;;23.20;71.71;99742.28;;;;-59
2020/08/21 02:03:07;;;;;;;1.41;1.31;;;;;;;23.21;71.76;99741.70;;;;-59
2020/08/21 02:06:07;;;;;;;1.54;1.39;;;;;;;23.20;71.74;99740.95;;;;-59
2020/08/21 02:09:07;;;;;;;2.12;1.40;;;;;;;23.20;71.71;99736.38;;;;-59
2020/08/21 02:12:07;;;;;;;1.39;1.29;;;;;;;23.20;71.69;99732.30;;;;-59
2020/08/21 02:15:06;;;;;;;1.43;1.30;;;;;;;23.19;71.70;99735.09;;;;-58
2020/08/21 02:18:06;;;;;;;1.40;1.30;;;;;;;23.19;71.74;99731.02;;;;-59
2020/08/21 02:21:06;;;;;;;1.66;1.38;;;;;;;23.19;71.71;99732.41;;;;-58
2020/08/21 02:24:06;;;;;;;1.53;1.40;;;;;;;23.19;71.71;99734.69;;;;-51
2020/08/21 02:27:06;;;;;;;1.40;1.30;;;;;;;23.19;71.70;99737.72;;;;-52
2020/08/21 02:30:06;;;;;;;1.74;1.42;;;;;;;23.19;71.70;99739.28;;;;-58
2020/08/21 02:33:06;;;;;;;1.79;1.31;;;;;;;23.19;71.71;99744.68;;;;-51
2020/08/21 02:36:06;;;;;;;1.40;1.30;;;;;;;23.19;71.68;99751.55;;;;-58
2020/08/21 02:39:06;;;;;;;1.47;1.37;;;;;;;23.18;71.71;99754.67;;;;-58
2020/08/21 02:42:07;;;;;;;1.41;1.31;;;;;;;23.18;71.71;99762.75;;;;-58
2020/08/21 02:45:07;;;;;;;1.40;1.30;;;;;;;23.18;71.71;99759.83;;;;-58
2020/08/21 02:48:06;;;;;;;1.26;1.16;;;;;;;23.17;71.74;99765.22;;;;-58
2020/08/21 02:51:06;;;;;;;1.77;1.39;;;;;;;23.17;71.67;99771.59;;;;-58
2020/08/21 02:54:06;;;;;;;1.40;1.30;;;;;;;23.17;71.72;99768.66;;;;-51
2020/08/21 02:57:06;;;;;;;1.38;1.28;;;;;;;23.17;71.70;99767.59;;;;-53
2020/08/21 03:00:06;;;;;;;1.51;1.25;;;;;;;23.17;71.73;99762.95;;;;-53
2020/08/21 03:03:06;;;;;;;1.29;1.19;;;;;;;23.16;71.72;99759.69;;;;-51
2020/08/21 03:06:06;;;;;;;1.29;1.19;;;;;;;23.16;71.73;99759.04;;;;-51
2020/08/21 03:09:06;;;;;;;1.43;1.30;;;;;;;23.17;71.73;99756.17;;;;-53
2020/08/21 03:12:06;;;;;;;1.51;1.41;;;;;;;23.16;71.71;99759.11;;;;-54
2020/08/21 03:15:07;;;;;;;1.29;1.19;;;;;;;23.16;71.73;99756.34;;;;-53
2020/08/21 03:18:06;;;;;;;1.28;1.20;;;;;;;23.16;71.75;99755.86;;;;-53
2020/08/21 03:21:07;;;;;;;1.40;1.21;;;;;;;23.15;71.68;99755.61;;;;-59
2020/08/21 03:24:06;;;;;;;1.39;1.29;;;;;;;23.15;71.74;99755.06;;;;-58
2020/08/21 03:27:06;;;;;;;1.33;1.23;;;;;;;23.14;71.73;99753.36;;;;-58
2020/08/21 03:30:06;;;;;;;1.39;1.29;;;;;;;23.15;71.74;99754.41;;;;-58
2020/08/21 03:33:06;;;;;;;1.40;1.30;;;;;;;23.15;71.75;99759.97;;;;-59
2020/08/21 03:36:06;;;;;;;1.41;1.31;;;;;;;23.14;71.73;99753.03;;;;-58
2020/08/21 03:39:06;;;;;;;1.30;1.20;;;;;;;23.14;71.76;99754.84;;;;-58
2020/08/21 03:42:06;;;;;;;1.10;1.10;;;;;;;23.14;71.76;99754.83;;;;-58
2020/08/21 03:45:07;;;;;;;1.87;1.23;;;;;;;23.13;71.75;99753.53;;;;-58
2020/08/21 03:48:07;;;;;;;1.10;1.10;;;;;;;23.13;71.75;99753.87;;;;-58
2020/08/21 03:51:07;;;;;;;1.31;1.21;;;;;;;23.13;71.76;99754.92;;;;-58
2020/08/21 03:54:06;;;;;;;1.40;1.30;;;;;;;23.13;71.75;99760.32;;;;-58
2020/08/21 03:57:06;;;;;;;2.70;1.41;;;;;;;23.13;71.76;99757.39;;;;-58
2020/08/21 04:00:06;;;;;;;1.31;1.23;;;;;;;23.13;71.77;99756.41;;;;-57
2020/08/21 04:03:06;;;;;;;1.33;1.24;;;;;;;23.13;71.77;99758.70;;;;-58
2020/08/21 04:06:06;;;;;;;1.48;1.38;;;;;;;23.12;71.78;99763.88;;;;-58
2020/08/21 04:09:06;;;;;;;1.46;1.36;;;;;;;23.12;71.78;99769.77;;;;-57
2020/08/21 04:12:06;;;;;;;1.40;1.30;;;;;;;23.12;71.78;99770.81;;;;-57
2020/08/21 04:15:07;;;;;;;1.31;1.21;;;;;;;23.12;71.77;99770.41;;;;-58
2020/08/21 04:18:07;;;;;;;1.31;1.25;;;;;;;23.12;71.75;99777.61;;;;-59
2020/08/21 04:21:06;;;;;;;1.56;1.38;;;;;;;23.12;71.78;99774.99;;;;-53
2020/08/21 04:24:06;;;;;;;1.40;1.30;;;;;;;23.12;71.76;99778.65;;;;-53
2020/08/21 04:27:06;;;;;;;1.30;1.20;;;;;;;23.11;71.79;99778.10;;;;-51
2020/08/21 04:30:06;;;;;;;1.30;1.20;;;;;;;23.12;71.79;99786.00;;;;-53
2020/08/21 04:33:06;;;;;;;1.29;1.21;;;;;;;23.11;71.76;99783.16;;;;-53
2020/08/21 04:36:06;;;;;;;1.39;1.29;;;;;;;23.12;71.75;99781.75;;;;-54
2020/08/21 04:39:06;;;;;;;1.39;1.30;;;;;;;23.11;71.76;99780.72;;;;-53
2020/08/21 04:42:06;;;;;;;1.30;1.20;;;;;;;23.11;71.77;99778.92;;;;-53
2020/08/21 04:45:06;;;;;;;1.30;1.20;;;;;;;23.10;71.77;99778.28;;;;-57
2020/08/21 04:48:06;;;;;;;1.27;1.17;;;;;;;23.10;71.74;99779.83;;;;-58
2020/08/21 04:51:06;;;;;;;1.40;1.30;;;;;;;23.11;71.79;99779.58;;;;-58
2020/08/21 04:54:06;;;;;;;1.30;1.20;;;;;;;23.10;71.78;99771.42;;;;-51
2020/08/21 04:57:06;;;;;;;1.40;1.30;;;;;;;23.10;71.73;99772.81;;;;-51
2020/08/21 05:00:06;;;;;;;1.39;1.29;;;;;;;23.09;71.79;99777.05;;;;-53
2020/08/21 05:03:06;;;;;;;1.34;1.24;;;;;;;23.09;71.80;99781.72;;;;-53
2020/08/21 05:06:06;;;;;;;1.29;1.19;;;;;;;23.09;71.68;99783.52;;;;-52
2020/08/21 05:09:06;;;;;;;1.93;1.31;;;;;;;23.10;71.80;99791.36;;;;-53
2020/08/21 05:12:06;;;;;;;2.92;1.50;;;;;;;23.10;71.90;99790.40;;;;-52
2020/08/21 05:15:07;;;;;;;8.98;1.59;;;;;;;23.10;71.95;99788.44;;;;-52
2020/08/21 05:18:07;;;;;;;1.83;1.72;;;;;;;23.10;72.07;99793.83;;;;-52
2020/08/21 05:21:06;;;;;;;3.10;1.77;;;;;;;23.10;72.11;99790.29;;;;-52
2020/08/21 05:24:06;;;;;;;3.03;1.80;;;;;;;23.11;72.14;99789.38;;;;-52
2020/08/21 05:27:06;;;;;;;3.19;1.80;;;;;;;23.10;72.09;99788.44;;;;-52
2020/08/21 05:30:06;;;;;;;2.10;1.90;;;;;;;23.10;72.15;99788.02;;;;-53
2020/08/21 05:33:06;;;;;;;3.27;2.28;;;;;;;23.10;72.30;99792.25;;;;-58
2020/08/21 05:36:06;;;;;;;3.59;2.22;;;;;;;23.10;72.09;99796.52;;;;-59
2020/08/21 05:39:06;;;;;;;4.43;2.25;;;;;;;23.10;72.02;99795.21;;;;-58
2020/08/21 05:42:06;;;;;;;2.59;2.17;;;;;;;23.10;72.03;99791.29;;;;-57
2020/08/21 05:45:06;;;;;;;2.15;1.93;;;;;;;23.09;72.07;99793.08;;;;-58
2020/08/21 05:48:06;;;;;;;2.13;1.93;;;;;;;23.09;72.09;99791.04;;;;-53
2020/08/21 05:51:07;;;;;;;2.19;2.06;;;;;;;23.09;72.09;99797.73;;;;-51
2020/08/21 05:54:06;;;;;;;1.97;1.87;;;;;;;23.09;72.00;99795.87;;;;-53
2020/08/21 05:57:06;;;;;;;2.17;1.97;;;;;;;23.08;71.97;99802.91;;;;-51
2020/08/21 06:00:06;;;;;;;2.20;2.00;;;;;;;23.08;72.08;99804.22;;;;-53
2020/08/21 06:03:06;;;;;;;2.08;1.98;;;;;;;23.08;72.01;99805.63;;;;-51
2020/08/21 06:06:06;;;;;;;7.54;2.43;;;;;;;23.09;72.02;99810.58;;;;-58
2020/08/21 06:09:06;;;;;;;3.39;2.09;;;;;;;23.09;71.97;99814.91;;;;-58
2020/08/21 06:12:06;;;;;;;2.35;2.15;;;;;;;23.08;72.07;99822.53;;;;-58
2020/08/21 06:15:06;;;;;;;2.41;2.21;;;;;;;23.09;72.05;99827.34;;;;-53
2020/08/21 06:18:07;;;;;;;2.31;2.11;;;;;;;23.08;72.07;99829.16;;;;-54
2020/08/21 06:21:06;;;;;;;2.46;2.10;;;;;;;23.08;72.04;99836.11;;;;-53
2020/08/21 06:24:06;;;;;;;2.39;1.97;;;;;;;23.08;72.02;99834.16;;;;-53
2020/08/21 06:27:06;;;;;;;2.20;2.00;;;;;;;23.08;72.02;99851.14;;;;-53
2020/08/21 06:30:06;;;;;;;3.01;2.09;;;;;;;23.08;72.03;99851.41;;;;-53
2020/08/21 06:33:06;;;;;;;1.98;1.88;;;;;;;23.08;72.04;99850.92;;;;-53
2020/08/21 06:36:06;;;;;;;1.99;1.89;;;;;;;23.07;72.04;99855.16;;;;-53
2020/08/21 06:39:06;;;;;;;2.68;2.01;;;;;;;23.07;71.99;99847.33;;;;-54
2020/08/21 06:42:06;;;;;;;2.19;1.99;;;;;;;23.07;72.01;99849.59;;;;-53
2020/08/21 06:45:06;;;;;;;2.27;1.99;;;;;;;23.07;71.99;99864.22;;;;-53
2020/08/21 06:48:06;;;;;;;2.24;2.04;;;;;;;23.06;72.02;99868.34;;;;-53
2020/08/21 06:51:06;;;;;;;2.17;1.95;;;;;;;23.07;72.03;99873.31;;;;-54
2020/08/21 06:54:06;;;;;;;2.20;2.00;;;;;;;23.06;71.98;99871.77;;;;-54
2020/08/21 06:57:06;;;;;;;2.03;1.93;;;;;;;23.06;71.97;99870.39;;;;-54
2020/08/21 08:07:32;;;;;;;3.35;2.23;;;;;;;22.77;73.17;99904.20;;;;-51
2020/08/21 08:10:32;;;;;;;3.33;2.17;;;;;;;22.78;73.07;99906.92;;;;-58
2020/08/21 08:13:32;;;;;;;2.43;2.10;;;;;;;22.82;72.97;99902.32;;;;-58
2020/08/21 08:16:32;;;;;;;2.63;2.03;;;;;;;22.84;72.86;99904.08;;;;-51
2020/08/21 08:19:32;;;;;;;3.45;2.21;;;;;;;22.86;72.82;99899.64;;;;-58
2020/08/21 08:22:32;;;;;;;2.91;2.10;;;;;;;22.87;72.77;99895.86;;;;-52
2020/08/21 08:25:32;;;;;;;3.09;2.16;;;;;;;22.88;72.68;99906.87;;;;-52
2020/08/21 08:28:32;;;;;;;2.94;2.37;;;;;;;22.89;72.62;99901.80;;;;-52
2020/08/21 08:31:32;;;;;;;3.80;2.05;;;;;;;22.90;72.57;99897.83;;;;-52
2020/08/21 08:34:32;;;;;;;2.60;2.10;;;;;;;22.92;72.56;99903.55;;;;-52
2020/08/21 08:37:32;;;;;;;2.78;2.07;;;;;;;22.92;72.53;99899.36;;;;-52
2020/08/21 08:40:32;;;;;;;2.38;2.10;;;;;;;22.94;72.54;99897.95;;;;-51
2020/08/21 08:43:32;;;;;;;2.20;2.00;;;;;;;22.94;72.46;99897.45;;;;-52
2020/08/21 08:46:32;;;;;;;2.48;2.03;;;;;;;22.95;72.41;99903.81;;;;-52
2020/08/21 08:49:32;;;;;;;3.01;2.04;;;;;;;22.95;72.44;99900.55;;;;-52
2020/08/21 08:52:32;;;;;;;2.31;2.02;;;;;;;22.95;72.39;99909.36;;;;-54
2020/08/21 08:55:32;;;;;;;2.17;1.97;;;;;;;22.95;72.38;99914.94;;;;-59
2020/08/21 08:58:32;;;;;;;2.51;2.11;;;;;;;22.96;72.35;99907.22;;;;-59
2020/08/21 09:01:32;;;;;;;2.25;2.05;;;;;;;22.96;72.35;99903.53;;;;-60
2020/08/21 09:04:32;;;;;;;3.18;2.17;;;;;;;22.97;72.34;99902.70;;;;-59
2020/08/21 09:07:32;;;;;;;2.93;2.12;;;;;;;22.97;72.32;99908.02;;;;-60
2020/08/21 09:10:32;;;;;;;5.40;2.21;;;;;;;22.97;72.33;99910.89;;;;-59
2020/08/21 09:13:32;;;;;;;2.30;2.10;;;;;;;22.98;72.28;99911.13;;;;-51
2020/08/21 09:16:32;;;;;;;2.64;2.09;;;;;;;22.97;72.28;99912.58;;;;-61
2020/08/21 09:19:32;;;;;;;2.52;1.97;;;;;;;22.98;72.27;99914.05;;;;-59
2020/08/21 09:22:31;;;;;;;2.64;2.05;;;;;;;22.99;72.26;99917.30;;;;-61
2020/08/21 09:25:32;;;;;;;2.19;1.95;;;;;;;22.98;72.30;99927.36;;;;-59
2020/08/21 09:28:32;;;;;;;2.25;2.04;;;;;;;22.98;72.26;99927.36;;;;-59
2020/08/21 09:31:32;;;;;;;2.63;2.21;;;;;;;22.99;72.26;99923.26;;;;-59
2020/08/21 09:34:32;;;;;;;2.62;1.97;;;;;;;22.99;72.26;99925.22;;;;-61
2020/08/21 09:37:32;;;;;;;5.51;2.14;;;;;;;22.98;72.40;99927.87;;;;-49
2020/08/21 09:40:32;;;;;;;3.15;2.23;;;;;;;23.00;72.24;99924.22;;;;-53
2020/08/21 09:43:32;;;;;;;2.43;2.10;;;;;;;23.02;72.29;99922.95;;;;-53
2020/08/21 09:46:32;;;;;;;3.43;2.09;;;;;;;23.04;72.27;99917.02;;;;-55
2020/08/21 09:49:32;;;;;;;3.07;2.08;;;;;;;23.04;72.34;99914.95;;;;-54
2020/08/21 09:52:32;;;;;;;4.19;2.10;;;;;;;23.05;72.31;99915.02;;;;-48
2020/08/21 09:55:32;;;;;;;5.95;2.11;;;;;;;23.06;72.21;99915.27;;;;-48
2020/08/21 09:58:32;;;;;;;4.21;1.95;;;;;;;23.06;72.20;99910.53;;;;-58
2020/08/21 10:01:32;;;;;;;2.51;2.02;;;;;;;23.06;72.19;99896.94;;;;-48
2020/08/21 10:04:32;;;;;;;3.67;1.90;;;;;;;23.06;72.14;99909.05;;;;-48
2020/08/21 10:07:32;;;;;;;3.84;2.10;;;;;;;23.06;72.14;99908.33;;;;-48
2020/08/21 10:10:32;;;;;;;2.28;2.03;;;;;;;23.07;72.07;99904.53;;;;-50
2020/08/21 10:13:32;;;;;;;5.44;2.30;;;;;;;23.07;72.40;99906.98;;;;-52
2020/08/21 10:16:32;;;;;;;3.10;2.01;;;;;;;23.08;72.66;99909.18;;;;-54
2020/08/21 10:19:32;;;;;;;3.29;2.05;;;;;;;23.08;72.66;99901.81;;;;-51
2020/08/21 10:22:32;;;;;;;4.79;2.17;;;;;;;23.10;72.66;99903.35;;;;-53
2020/08/21 10:25:32;;;;;;;9.38;2.19;;;;;;;23.12;72.95;99906.73;;;;-60
2020/08/21 10:28:32;;;;;;;13.24;2.83;;;;;;;23.15;72.94;99898.98;;;;-52
2020/08/21 10:31:32;;;;;;;16.09;2.92;;;;;;;23.18;73.25;99900.92;;;;-57
2020/08/21 10:34:32;;;;;;;21.25;3.25;;;;;;;23.19;72.93;99901.94;;;;-56
2020/08/21 10:37:32;;;;;;;21.57;3.22;;;;;;;23.19;72.80;99904.39;;;;-51
2020/08/21 10:40:32;;;;;;;16.19;2.91;;;;;;;23.19;72.74;99904.41;;;;-61
2020/08/21 10:43:32;;;;;;;16.81;2.85;;;;;;;23.19;72.69;99906.12;;;;-61
2020/08/21 10:46:32;;;;;;;14.25;2.69;;;;;;;23.17;72.57;99903.52;;;;-60
2020/08/21 10:49:32;;;;;;;9.63;2.56;;;;;;;23.18;72.54;99903.44;;;;-62
2020/08/21 10:52:32;;;;;;;11.42;2.55;;;;;;;23.17;72.47;99906.16;;;;-59
2020/08/21 10:55:32;;;;;;;8.92;2.32;;;;;;;23.16;72.43;99906.27;;;;-60
2020/08/21 10:58:32;;;;;;;6.99;2.44;;;;;;;23.16;72.40;99906.84;;;;-60
2020/08/21 11:01:32;;;;;;;8.35;2.35;;;;;;;23.16;72.37;99909.52;;;;-56
2020/08/21 11:04:32;;;;;;;7.17;2.33;;;;;;;23.16;72.34;99911.80;;;;-56
2020/08/21 11:07:32;;;;;;;7.71;2.46;;;;;;;23.15;72.31;99910.86;;;;-56
2020/08/21 11:10:32;;;;;;;5.29;2.15;;;;;;;23.15;72.28;99909.87;;;;-56
2020/08/21 11:13:32;;;;;;;8.03;2.49;;;;;;;23.14;72.26;99919.38;;;;-56
2020/08/21 11:16:32;;;;;;;5.61;2.43;;;;;;;23.14;72.24;99918.14;;;;-56
2020/08/21 11:19:32;;;;;;;5.61;2.20;;;;;;;23.14;72.25;99912.66;;;;-56
2020/08/21 11:22:32;;;;;;;4.18;2.18;;;;;;;23.14;72.24;99909.00;;;;-55
2020/08/21 11:25:32;;;;;;;5.93;2.10;;;;;;;23.13;72.20;99907.05;;;;-56
2020/08/21 11:28:32;;;;;;;6.17;2.45;;;;;;;23.13;72.20;99909.08;;;;-56
2020/08/21 11:31:32;;;;;;;3.34;2.14;;;;;;;23.13;72.20;99925.66;;;;-56
2020/08/21 11:34:32;;;;;;;3.54;1.98;;;;;;;23.13;72.15;99925.28;;;;-56
2020/08/21 11:37:32;;;;;;;4.69;2.10;;;;;;;23.12;72.15;99932.41;;;;-56
2020/08/21 11:40:32;;;;;;;3.57;2.07;;;;;;;23.12;72.15;99940.25;;;;-56
2020/08/21 11:43:32;;;;;;;3.87;2.06;;;;;;;23.12;72.11;99949.16;;;;-56
2020/08/21 11:46:32;;;;;;;4.51;2.07;;;;;;;23.12;72.08;99948.91;;;;-56
2020/08/21 11:49:32;;;;;;;2.89;2.00;;;;;;;23.12;72.11;99948.17;;;;-56
2020/08/21 11:52:32;;;;;;;4.30;2.11;;;;;;;23.12;72.06;99956.18;;;;-56
2020/08/21 11:55:32;;;;;;;3.55;2.09;;;;;;;23.11;72.04;99955.05;;;;-56
2020/08/21 11:58:32;;;;;;;3.96;2.16;;;;;;;23.11;72.04;99953.98;;;;-56
2020/08/21 12:01:32;;;;;;;6.61;2.12;;;;;;;23.11;72.02;99950.31;;;;-56
2020/08/21 12:04:32;;;;;;;5.14;2.16;;;;;;;23.11;72.00;99941.81;;;;-56
2020/08/21 12:07:32;;;;;;;3.10;2.17;;;;;;;23.10;72.04;99939.87;;;;-55
2020/08/21 12:10:32;;;;;;;5.88;2.25;;;;;;;23.10;72.00;99940.37;;;;-55
2020/08/21 12:13:32;;;;;;;3.48;2.16;;;;;;;23.10;72.04;99939.80;;;;-56
2020/08/21 12:16:32;;;;;;;3.09;2.15;;;;;;;23.10;72.02;99944.11;;;;-56
2020/08/21 12:19:32;;;;;;;3.37;2.00;;;;;;;23.10;72.03;99950.17;;;;-56
2020/08/21 12:22:32;;;;;;;3.27;1.90;;;;;;;23.10;72.01;99951.81;;;;-56
2020/08/21 12:25:32;;;;;;;2.30;2.01;;;;;;;23.10;72.03;99952.80;;;;-56
2020/08/21 12:28:32;;;;;;;2.53;1.97;;;;;;;23.09;72.03;99946.26;;;;-56
2020/08/21 12:31:32;;;;;;;2.33;2.01;;;;;;;23.10;72.01;99941.27;;;;-56
2020/08/21 12:34:32;;;;;;;3.58;2.13;;;;;;;23.09;72.08;99942.64;;;;-56
2020/08/21 12:37:32;;;;;;;3.87;2.03;;;;;;;23.10;72.07;99944.22;;;;-56
2020/08/21 12:40:32;;;;;;;4.63;2.02;;;;;;;23.09;72.05;99949.11;;;;-56
2020/08/21 12:43:32;;;;;;;2.59;1.97;;;;;;;23.09;72.08;99951.07;;;;-56
2020/08/21 12:46:32;;;;;;;3.22;2.03;;;;;;;23.09;72.07;99950.02;;;;-55
2020/08/21 12:49:32;;;;;;;3.54;1.98;;;;;;;23.09;72.08;99948.80;;;;-56
2020/08/21 12:52:32;;;;;;;2.07;1.87;;;;;;;23.09;72.07;99943.08;;;;-55
2020/08/21 12:55:32;;;;;;;3.11;1.91;;;;;;;23.09;72.08;99944.70;;;;-56
2020/08/21 12:58:32;;;;;;;3.41;1.91;;;;;;;23.08;72.04;99945.71;;;;-56
2020/08/21 13:01:32;;;;;;;9.37;2.35;;;;;;;23.08;72.18;99940.80;;;;-52
2020/08/21 13:04:32;;;;;;;5.70;2.21;;;;;;;23.10;72.21;99942.48;;;;-50
2020/08/21 13:07:32;;;;;;;4.99;2.19;;;;;;;23.13;72.23;99946.04;;;;-51
2020/08/21 13:10:32;;;;;;;3.77;1.98;;;;;;;23.14;72.25;99941.84;;;;-51
2020/08/21 13:13:32;;;;;;;8.64;2.40;;;;;;;23.17;72.40;99937.78;;;;-51
2020/08/21 13:16:32;;;;;;;6.70;2.28;;;;;;;23.17;72.59;99937.95;;;;-52
2020/08/21 13:19:32;;;;;;;4.97;2.01;;;;;;;23.18;72.64;99935.72;;;;-50
2020/08/21 13:22:32;;;;;;;4.48;2.19;;;;;;;23.19;72.58;99935.78;;;;-50
2020/08/21 13:25:32;;;;;;;5.83;2.19;;;;;;;23.20;72.58;99931.77;;;;-51
2020/08/21 13:28:32;;;;;;;4.48;2.10;;;;;;;23.22;72.59;99934.27;;;;-58
2020/08/21 13:31:32;;;;;;;5.45;2.19;;;;;;;23.23;72.64;99924.86;;;;-52
2020/08/21 13:34:32;;;;;;;3.51;2.17;;;;;;;23.25;72.68;99929.56;;;;-56
2020/08/21 13:37:32;;;;;;;4.19;2.09;;;;;;;23.26;72.68;99931.01;;;;-59
2020/08/21 13:40:32;;;;;;;6.94;2.08;;;;;;;23.27;72.79;99932.39;;;;-52
2020/08/21 13:43:32;;;;;;;5.43;2.34;;;;;;;23.28;72.57;99931.12;;;;-52
2020/08/21 13:46:32;;;;;;;4.10;2.28;;;;;;;23.29;72.66;99936.75;;;;-57
2020/08/21 13:49:32;;;;;;;3.86;2.10;;;;;;;23.30;72.65;99935.17;;;;-55
2020/08/21 13:52:32;;;;;;;6.03;2.11;;;;;;;23.32;72.68;99931.06;;;;-54
2020/08/21 13:55:32;;;;;;;4.75;1.95;;;;;;;23.34;72.62;99933.41;;;;-59
2020/08/21 13:58:32;;;;;;;5.93;2.02;;;;;;;23.35;72.49;99935.36;;;;-54
2020/08/21 14:01:32;;;;;;;5.19;2.10;;;;;;;23.35;72.55;99930.84;;;;-61
2020/08/21 14:04:32;;;;;;;5.03;2.03;;;;;;;23.37;72.69;99926.83;;;;-58
2020/08/21 14:07:32;;;;;;;3.91;2.01;;;;;;;23.36;72.80;99916.51;;;;-61
2020/08/21 14:10:32;;;;;;;5.57;2.19;;;;;;;23.38;72.97;99914.59;;;;-58
2020/08/21 14:13:32;;;;;;;7.10;2.20;;;;;;;23.38;72.59;99911.96;;;;-52
2020/08/21 14:16:32;;;;;;;6.56;2.26;;;;;;;23.39;72.64;99913.45;;;;-48
2020/08/21 14:19:32;;;;;;;5.51;2.25;;;;;;;23.40;72.65;99912.09;;;;-55
2020/08/21 14:22:32;;;;;;;4.22;2.07;;;;;;;23.40;72.57;99912.41;;;;-58
2020/08/21 14:25:32;;;;;;;5.47;2.18;;;;;;;23.41;72.57;99908.50;;;;-57
2020/08/21 14:28:32;;;;;;;4.92;2.13;;;;;;;23.42;72.55;99904.89;;;;-54
2020/08/21 14:31:32;;;;;;;3.53;2.09;;;;;;;23.42;72.58;99905.12;;;;-49
2020/08/21 14:34:32;;;;;;;7.13;2.20;;;;;;;23.43;72.55;99904.87;;;;-53
2020/08/21 14:37:32;;;;;;;4.93;2.05;;;;;;;23.44;72.69;99901.47;;;;-56
2020/08/21 14:40:32;;;;;;;6.69;2.19;;;;;;;23.44;72.53;99901.14;;;;-56
2020/08/21 14:43:32;;;;;;;4.35;2.15;;;;;;;23.46;72.53;99910.77;;;;-58
2020/08/21 14:46:32;;;;;;;4.45;2.10;;;;;;;23.47;72.46;99918.42;;;;-57
2020/08/21 14:49:32;;;;;;;4.84;2.29;;;;;;;23.47;72.54;99921.14;;;;-51
2020/08/21 14:52:32;;;;;;;4.59;2.23;;;;;;;23.48;72.49;99924.78;;;;-53
2020/08/21 14:55:32;;;;;;;4.45;1.89;;;;;;;23.49;72.41;99929.85;;;;-59
2020/08/21 14:58:32;;;;;;;5.44;2.11;;;;;;;23.50;72.45;99935.47;;;;-59
2020/08/21 15:01:32;;;;;;;3.99;2.05;;;;;;;23.50;72.32;99933.09;;;;-56
2020/08/21 15:04:32;;;;;;;3.09;2.08;;;;;;;23.52;72.36;99933.81;;;;-52
2020/08/21 15:07:32;;;;;;;4.02;2.09;;;;;;;23.52;72.29;99937.23;;;;-54
2020/08/21 15:10:32;;;;;;;7.16;2.28;;;;;;;23.54;72.36;99946.95;;;;-50
2020/08/21 15:13:32;;;;;;;7.63;2.09;;;;;;;23.53;72.47;99939.73;;;;-51
2020/08/21 15:16:32;;;;;;;4.91;2.25;;;;;;;23.54;72.42;99931.88;;;;-47
2020/08/21 15:19:32;;;;;;;3.81;2.09;;;;;;;23.54;72.68;99924.86;;;;-56
2020/08/21 15:22:32;;;;;;;9.85;2.40;;;;;;;23.55;72.50;99920.34;;;;-45
2020/08/21 15:25:32;;;;;;;7.86;2.13;;;;;;;23.56;72.42;99920.41;;;;-58
2020/08/21 15:28:32;;;;;;;8.45;2.29;;;;;;;23.57;72.55;99920.45;;;;-59
2020/08/21 15:31:32;;;;;;;4.47;2.13;;;;;;;23.57;72.56;99923.06;;;;-54
2020/08/21 15:34:32;;;;;;;7.76;2.20;;;;;;;23.57;72.56;99922.08;;;;-53
2020/08/21 15:37:32;;;;;;;5.16;2.04;;;;;;;23.56;72.61;99919.64;;;;-59
2020/08/21 15:40:32;;;;;;;3.40;2.11;;;;;;;23.56;72.64;99920.47;;;;-60
2020/08/21 15:43:32;;;;;;;7.57;2.34;;;;;;;23.58;72.62;99916.50;;;;-56
2020/08/21 15:46:32;;;;;;;5.51;2.33;;;;;;;23.60;72.52;99915.75;;;;-55
2020/08/21 15:49:32;;;;;;;3.97;2.03;;;;;;;23.61;72.51;99909.50;;;;-53
2020/08/21 15:52:32;;;;;;;4.89;1.95;;;;;;;23.61;72.52;99908.34;;;;-53
2020/08/21 15:55:32;;;;;;;3.41;2.01;;;;;;;23.62;72.44;99915.36;;;;-56
2020/08/21 15:58:32;;;;;;;5.66;2.30;;;;;;;23.61;72.38;99920.61;;;;-55
2020/08/21 16:01:32;;;;;;;4.93;2.10;;;;;;;23.63;72.63;99917.73;;;;-53
2020/08/21 16:04:32;;;;;;;6.07;2.17;;;;;;;23.61;72.43;99912.75;;;;-52
2020/08/21 16:07:32;;;;;;;5.75;2.25;;;;;;;23.62;72.42;99914.15;;;;-59
2020/08/21 16:10:49;;;;;;;4.55;2.52;;;;;;;23.62;72.30;99919.73;;;;-62
2020/08/21 16:13:32;;;;;;;6.31;2.13;;;;;;;23.62;72.30;99920.38;;;;-57
2020/08/21 16:16:32;;;;;;;6.90;2.04;;;;;;;23.62;72.41;99918.56;;;;-55
2020/08/21 16:19:32;;;;;;;4.21;2.37;;;;;;;23.62;72.37;99915.62;;;;-58
2020/08/21 16:22:32;;;;;;;5.62;2.57;;;;;;;23.63;72.34;99921.56;;;;-59
2020/08/21 16:25:32;;;;;;;4.77;2.17;;;;;;;23.64;72.32;99924.02;;;;-56
2020/08/21 16:28:32;;;;;;;8.77;2.25;;;;;;;23.63;72.27;99922.86;;;;-60
2020/08/21 16:31:32;;;;;;;10.87;2.37;;;;;;;23.65;72.63;99920.38;;;;-57
2020/08/21 16:34:32;;;;;;;7.23;2.27;;;;;;;23.65;72.25;99925.59;;;;-56
2020/08/21 16:37:32;;;;;;;5.93;2.07;;;;;;;23.66;72.33;99927.65;;;;-50
2020/08/21 16:40:32;;;;;;;5.11;2.10;;;;;;;23.67;72.37;99932.37;;;;-53
2020/08/21 16:43:32;;;;;;;6.53;2.10;;;;;;;23.68;72.41;99935.88;;;;-52
2020/08/21 16:46:32;;;;;;;5.58;2.15;;;;;;;23.69;72.38;99937.88;;;;-52
2020/08/21 16:49:32;;;;;;;5.71;2.14;;;;;;;23.70;72.42;99935.84;;;;-52
2020/08/21 16:52:32;;;;;;;3.81;2.14;;;;;;;23.70;72.32;99929.04;;;;-61
2020/08/21 16:55:32;;;;;;;5.06;2.29;;;;;;;23.71;72.22;99924.75;;;;-52
2020/08/21 16:58:32;;;;;;;6.63;2.59;;;;;;;23.72;72.33;99925.98;;;;-55
2020/08/21 17:01:32;;;;;;;4.27;2.12;;;;;;;23.72;72.25;99926.14;;;;-53
2020/08/21 17:04:32;;;;;;;5.03;1.90;;;;;;;23.74;72.47;99928.06;;;;-51
2020/08/21 17:07:32;;;;;;;3.96;2.10;;;;;;;23.72;72.10;99924.24;;;;-51
2020/08/21 17:10:32;;;;;;;3.33;2.19;;;;;;;23.72;72.04;99929.15;;;;-53
2020/08/21 17:13:32;;;;;;;7.45;2.29;;;;;;;23.72;72.34;99932.75;;;;-52
2020/08/21 17:16:32;;;;;;;11.46;2.55;;;;;;;23.70;71.92;99942.55;;;;-53
2020/08/21 17:19:32;;;;;;;11.10;2.31;;;;;;;23.69;71.95;99943.12;;;;-53
2020/08/21 17:22:32;;;;;;;9.25;2.16;;;;;;;23.69;71.99;99944.45;;;;-53
2020/08/21 17:25:32;;;;;;;4.75;2.23;;;;;;;23.68;71.87;99944.88;;;;-53
2020/08/21 17:28:32;;;;;;;4.93;2.15;;;;;;;23.67;71.88;99949.63;;;;-53
2020/08/21 17:31:32;;;;;;;7.75;2.39;;;;;;;23.66;71.87;99952.68;;;;-53
2020/08/21 17:34:32;;;;;;;3.43;2.05;;;;;;;23.65;71.85;99959.08;;;;-53
2020/08/21 17:37:32;;;;;;;4.96;2.18;;;;;;;23.64;71.83;99962.69;;;;-53
2020/08/21 17:40:32;;;;;;;5.25;2.07;;;;;;;23.63;71.83;99967.03;;;;-53
2020/08/21 17:43:32;;;;;;;5.49;2.07;;;;;;;23.62;71.78;99968.64;;;;-49
2020/08/21 17:46:32;;;;;;;4.31;2.13;;;;;;;23.61;71.83;99970.36;;;;-49
2020/08/21 17:49:32;;;;;;;4.67;2.17;;;;;;;23.60;71.78;99978.24;;;;-53
2020/08/21 17:52:32;;;;;;;4.33;2.06;;;;;;;23.59;71.80;99977.25;;;;-53
2020/08/21 17:55:32;;;;;;;6.97;2.15;;;;;;;23.58;71.76;99976.70;;;;-53
2020/08/21 17:58:32;;;;;;;4.91;2.08;;;;;;;23.58;71.76;99980.64;;;;-55
2020/08/21 18:01:32;;;;;;;5.22;2.03;;;;;;;23.57;71.79;99975.83;;;;-56